sensor_id;sensor_type;location;lat;lon;timestamp;P1;durP1;ratioP1;P2;durP2;ratioP2
65737;SDS011;52478;51.844;6.582;2023-03-01T00:02:11;6.75;;;2.90;;
65737;SDS011;52478;51.844;6.582;2023-03-01T00:04:37;6.95;;;2.90;;
65737;SDS011;52478;51.844;6.582;2023-03-01T00:07:04;7.50;;;3.20;;
65737;SDS011;52478;51.844;6.582;2023-03-01T00:09:30;7.43;;;3.22;;
65737;SDS011;52478;51.844;6.582;2023-03-01T00:11:57;7.32;;;3.00;;
65737;SDS011;52478;51.844;6.582;2023-03-01T00:14:24;6.95;;;2.92;;
65737;SDS011;52478;51.844;6.582;2023-03-01T00:16:51;7.28;;;3.47;;
65737;SDS011;52478;51.844;6.582;2023-03-01T00:19:19;7.90;;;2.88;;
65737;SDS011;52478;51.844;6.582;2023-03-01T00:21:46;7.43;;;3.20;;
65737;SDS011;52478;51.844;6.582;2023-03-01T00:24:13;7.32;;;3.30;;
65737;SDS011;52478;51.844;6.582;2023-03-01T00:26:40;7.70;;;3.38;;
65737;SDS011;52478;51.844;6.582;2023-03-01T00:29:07;7.55;;;3.13;;
65737;SDS011;52478;51.844;6.582;2023-03-01T00:31:35;7.32;;;2.95;;
65737;SDS011;52478;51.844;6.582;2023-03-01T00:34:02;7.35;;;3.08;;
65737;SDS011;52478;51.844;6.582;2023-03-01T00:36:31;7.35;;;2.92;;
65737;SDS011;52478;51.844;6.582;2023-03-01T00:38:58;7.07;;;3.13;;
65737;SDS011;52478;51.844;6.582;2023-03-01T00:41:25;6.72;;;3.03;;
65737;SDS011;52478;51.844;6.582;2023-03-01T00:43:52;7.25;;;2.88;;
65737;SDS011;52478;51.844;6.582;2023-03-01T00:46:21;6.60;;;2.83;;
65737;SDS011;52478;51.844;6.582;2023-03-01T00:48:50;7.30;;;2.72;;
65737;SDS011;52478;51.844;6.582;2023-03-01T00:51:17;6.78;;;3.40;;
65737;SDS011;52478;51.844;6.582;2023-03-01T00:53:45;7.40;;;3.10;;
65737;SDS011;52478;51.844;6.582;2023-03-01T00:58:39;6.93;;;3.20;;
65737;SDS011;52478;51.844;6.582;2023-03-01T01:01:10;5.75;;;2.63;;
65737;SDS011;52478;51.844;6.582;2023-03-01T01:03:43;6.57;;;2.90;;
65737;SDS011;52478;51.844;6.582;2023-03-01T01:06:18;6.80;;;2.92;;
65737;SDS011;52478;51.844;6.582;2023-03-01T01:08:47;6.90;;;3.47;;
65737;SDS011;52478;51.844;6.582;2023-03-01T01:11:14;7.28;;;3.22;;
65737;SDS011;52478;51.844;6.582;2023-03-01T01:13:41;6.97;;;3.40;;
65737;SDS011;52478;51.844;6.582;2023-03-01T01:16:08;6.57;;;2.88;;
65737;SDS011;52478;51.844;6.582;2023-03-01T01:18:35;6.20;;;3.30;;
65737;SDS011;52478;51.844;6.582;2023-03-01T01:21:05;6.90;;;3.22;;
65737;SDS011;52478;51.844;6.582;2023-03-01T01:23:34;7.20;;;3.30;;
65737;SDS011;52478;51.844;6.582;2023-03-01T01:26:04;6.32;;;2.67;;
65737;SDS011;52478;51.844;6.582;2023-03-01T01:28:32;6.25;;;2.83;;
65737;SDS011;52478;51.844;6.582;2023-03-01T01:30:58;6.45;;;2.72;;
65737;SDS011;52478;51.844;6.582;2023-03-01T01:33:25;6.47;;;3.17;;
65737;SDS011;52478;51.844;6.582;2023-03-01T01:35:52;6.95;;;2.90;;
65737;SDS011;52478;51.844;6.582;2023-03-01T01:38:18;6.15;;;3.10;;
65737;SDS011;52478;51.844;6.582;2023-03-01T01:40:47;6.15;;;2.90;;
65737;SDS011;52478;51.844;6.582;2023-03-01T01:43:17;6.45;;;2.90;;
65737;SDS011;52478;51.844;6.582;2023-03-01T01:45:46;6.97;;;3.28;;
65737;SDS011;52478;51.844;6.582;2023-03-01T01:48:13;6.35;;;3.17;;
65737;SDS011;52478;51.844;6.582;2023-03-01T01:50:44;6.30;;;3.03;;
65737;SDS011;52478;51.844;6.582;2023-03-01T01:53:14;6.85;;;3.13;;
65737;SDS011;52478;51.844;6.582;2023-03-01T01:55:45;6.85;;;3.15;;
65737;SDS011;52478;51.844;6.582;2023-03-01T01:58:15;5.90;;;2.70;;
65737;SDS011;52478;51.844;6.582;2023-03-01T02:00:45;6.25;;;2.80;;
65737;SDS011;52478;51.844;6.582;2023-03-01T02:03:12;6.25;;;2.67;;
65737;SDS011;52478;51.844;6.582;2023-03-01T02:05:44;6.15;;;2.72;;
65737;SDS011;52478;51.844;6.582;2023-03-01T02:08:16;6.15;;;2.95;;
65737;SDS011;52478;51.844;6.582;2023-03-01T02:10:45;7.10;;;2.50;;
65737;SDS011;52478;51.844;6.582;2023-03-01T02:15:40;6.38;;;3.00;;
65737;SDS011;52478;51.844;6.582;2023-03-01T02:18:09;6.80;;;2.58;;
65737;SDS011;52478;51.844;6.582;2023-03-01T02:20:39;6.55;;;3.33;;
65737;SDS011;52478;51.844;6.582;2023-03-01T02:23:11;6.22;;;3.13;;
65737;SDS011;52478;51.844;6.582;2023-03-01T02:25:41;6.43;;;2.60;;
65737;SDS011;52478;51.844;6.582;2023-03-01T02:28:27;5.85;;;2.60;;
65737;SDS011;52478;51.844;6.582;2023-03-01T02:30:56;6.82;;;3.03;;
65737;SDS011;52478;51.844;6.582;2023-03-01T02:33:40;6.15;;;2.80;;
65737;SDS011;52478;51.844;6.582;2023-03-01T02:36:09;6.78;;;3.03;;
65737;SDS011;52478;51.844;6.582;2023-03-01T02:38:38;6.90;;;2.75;;
65737;SDS011;52478;51.844;6.582;2023-03-01T02:41:06;6.32;;;3.08;;
65737;SDS011;52478;51.844;6.582;2023-03-01T02:43:35;6.22;;;2.95;;
65737;SDS011;52478;51.844;6.582;2023-03-01T02:46:03;6.78;;;3.00;;
65737;SDS011;52478;51.844;6.582;2023-03-01T02:48:42;6.78;;;2.80;;
65737;SDS011;52478;51.844;6.582;2023-03-01T02:51:11;6.18;;;2.78;;
65737;SDS011;52478;51.844;6.582;2023-03-01T02:53:53;6.82;;;2.60;;
65737;SDS011;52478;51.844;6.582;2023-03-01T02:56:25;6.05;;;2.85;;
65737;SDS011;52478;51.844;6.582;2023-03-01T02:58:53;5.97;;;2.40;;
65737;SDS011;52478;51.844;6.582;2023-03-01T03:01:20;6.25;;;2.80;;
65737;SDS011;52478;51.844;6.582;2023-03-01T03:03:46;6.38;;;2.75;;
65737;SDS011;52478;51.844;6.582;2023-03-01T03:06:13;6.18;;;3.10;;
65737;SDS011;52478;51.844;6.582;2023-03-01T03:08:39;6.55;;;2.72;;
65737;SDS011;52478;51.844;6.582;2023-03-01T03:11:06;6.80;;;3.22;;
65737;SDS011;52478;51.844;6.582;2023-03-01T03:13:32;5.78;;;2.53;;
65737;SDS011;52478;51.844;6.582;2023-03-01T03:16:01;5.68;;;2.75;;
65737;SDS011;52478;51.844;6.582;2023-03-01T03:18:29;6.85;;;2.90;;
65737;SDS011;52478;51.844;6.582;2023-03-01T03:20:56;6.43;;;3.08;;
65737;SDS011;52478;51.844;6.582;2023-03-01T03:23:22;5.80;;;2.75;;
65737;SDS011;52478;51.844;6.582;2023-03-01T03:25:49;7.60;;;2.80;;
65737;SDS011;52478;51.844;6.582;2023-03-01T03:28:16;5.78;;;2.63;;
65737;SDS011;52478;51.844;6.582;2023-03-01T03:30:43;5.65;;;2.53;;
65737;SDS011;52478;51.844;6.582;2023-03-01T03:33:11;6.20;;;2.70;;
65737;SDS011;52478;51.844;6.582;2023-03-01T03:35:39;5.60;;;2.60;;
65737;SDS011;52478;51.844;6.582;2023-03-01T03:38:08;5.80;;;2.50;;
65737;SDS011;52478;51.844;6.582;2023-03-01T03:40:41;5.80;;;2.72;;
65737;SDS011;52478;51.844;6.582;2023-03-01T03:43:10;6.65;;;3.20;;
65737;SDS011;52478;51.844;6.582;2023-03-01T03:45:38;6.13;;;2.58;;
65737;SDS011;52478;51.844;6.582;2023-03-01T03:48:06;5.50;;;2.33;;
65737;SDS011;52478;51.844;6.582;2023-03-01T03:50:35;6.20;;;3.20;;
65737;SDS011;52478;51.844;6.582;2023-03-01T03:53:02;6.55;;;2.60;;
65737;SDS011;52478;51.844;6.582;2023-03-01T03:55:31;6.43;;;2.63;;
65737;SDS011;52478;51.844;6.582;2023-03-01T03:57:58;6.32;;;2.80;;
65737;SDS011;52478;51.844;6.582;2023-03-01T04:00:27;5.80;;;2.60;;
65737;SDS011;52478;51.844;6.582;2023-03-01T04:02:54;6.15;;;2.90;;
65737;SDS011;52478;51.844;6.582;2023-03-01T04:05:21;5.75;;;2.60;;
65737;SDS011;52478;51.844;6.582;2023-03-01T04:07:49;5.43;;;2.25;;
65737;SDS011;52478;51.844;6.582;2023-03-01T04:10:26;6.50;;;2.78;;
65737;SDS011;52478;51.844;6.582;2023-03-01T04:12:53;6.15;;;2.92;;
65737;SDS011;52478;51.844;6.582;2023-03-01T04:15:21;5.72;;;2.60;;
65737;SDS011;52478;51.844;6.582;2023-03-01T04:17:49;6.22;;;2.65;;
65737;SDS011;52478;51.844;6.582;2023-03-01T04:20:18;6.10;;;2.75;;
65737;SDS011;52478;51.844;6.582;2023-03-01T04:22:52;5.75;;;2.58;;
65737;SDS011;52478;51.844;6.582;2023-03-01T04:25:22;5.63;;;2.63;;
65737;SDS011;52478;51.844;6.582;2023-03-01T04:27:49;6.25;;;2.65;;
65737;SDS011;52478;51.844;6.582;2023-03-01T04:30:16;5.88;;;2.47;;
65737;SDS011;52478;51.844;6.582;2023-03-01T04:32:42;6.07;;;2.70;;
65737;SDS011;52478;51.844;6.582;2023-03-01T04:35:09;6.03;;;2.47;;
65737;SDS011;52478;51.844;6.582;2023-03-01T04:37:35;6.75;;;3.03;;
65737;SDS011;52478;51.844;6.582;2023-03-01T04:40:04;5.95;;;2.72;;
65737;SDS011;52478;51.844;6.582;2023-03-01T04:42:41;6.13;;;2.83;;
65737;SDS011;52478;51.844;6.582;2023-03-01T04:45:07;6.40;;;2.72;;
65737;SDS011;52478;51.844;6.582;2023-03-01T04:47:38;6.45;;;2.70;;
65737;SDS011;52478;51.844;6.582;2023-03-01T04:50:05;6.82;;;3.00;;
65737;SDS011;52478;51.844;6.582;2023-03-01T04:52:33;5.97;;;2.28;;
65737;SDS011;52478;51.844;6.582;2023-03-01T04:54:59;6.22;;;2.53;;
65737;SDS011;52478;51.844;6.582;2023-03-01T04:57:27;6.63;;;2.88;;
65737;SDS011;52478;51.844;6.582;2023-03-01T04:59:54;5.85;;;2.60;;
65737;SDS011;52478;51.844;6.582;2023-03-01T05:02:20;6.10;;;2.55;;
65737;SDS011;52478;51.844;6.582;2023-03-01T05:04:46;6.13;;;2.42;;
65737;SDS011;52478;51.844;6.582;2023-03-01T05:07:13;5.97;;;2.70;;
65737;SDS011;52478;51.844;6.582;2023-03-01T05:09:44;6.00;;;2.53;;
65737;SDS011;52478;51.844;6.582;2023-03-01T05:12:11;6.25;;;2.80;;
65737;SDS011;52478;51.844;6.582;2023-03-01T05:14:38;6.15;;;2.58;;
65737;SDS011;52478;51.844;6.582;2023-03-01T05:17:05;5.28;;;2.28;;
65737;SDS011;52478;51.844;6.582;2023-03-01T05:19:32;5.93;;;2.92;;
65737;SDS011;52478;51.844;6.582;2023-03-01T05:21:59;6.07;;;2.72;;
65737;SDS011;52478;51.844;6.582;2023-03-01T05:24:30;5.95;;;2.65;;
65737;SDS011;52478;51.844;6.582;2023-03-01T05:26:58;5.72;;;2.50;;
65737;SDS011;52478;51.844;6.582;2023-03-01T05:29:25;6.40;;;2.70;;
65737;SDS011;52478;51.844;6.582;2023-03-01T05:31:55;6.70;;;3.10;;
65737;SDS011;52478;51.844;6.582;2023-03-01T05:34:23;5.70;;;2.50;;
65737;SDS011;52478;51.844;6.582;2023-03-01T05:36:50;5.55;;;2.55;;
65737;SDS011;52478;51.844;6.582;2023-03-01T05:39:18;5.13;;;2.13;;
65737;SDS011;52478;51.844;6.582;2023-03-01T05:41:45;6.20;;;2.80;;
65737;SDS011;52478;51.844;6.582;2023-03-01T05:44:11;5.95;;;3.08;;
65737;SDS011;52478;51.844;6.582;2023-03-01T05:46:38;6.72;;;2.83;;
65737;SDS011;52478;51.844;6.582;2023-03-01T05:49:05;5.82;;;2.58;;
65737;SDS011;52478;51.844;6.582;2023-03-01T05:51:32;5.47;;;2.35;;
65737;SDS011;52478;51.844;6.582;2023-03-01T05:56:25;5.57;;;2.65;;
65737;SDS011;52478;51.844;6.582;2023-03-01T05:58:52;5.60;;;2.67;;
65737;SDS011;52478;51.844;6.582;2023-03-01T06:01:19;5.60;;;2.20;;
65737;SDS011;52478;51.844;6.582;2023-03-01T06:03:46;6.30;;;3.00;;
65737;SDS011;52478;51.844;6.582;2023-03-01T06:06:14;5.82;;;2.67;;
65737;SDS011;52478;51.844;6.582;2023-03-01T06:08:40;6.70;;;2.90;;
65737;SDS011;52478;51.844;6.582;2023-03-01T06:11:07;5.40;;;2.20;;
65737;SDS011;52478;51.844;6.582;2023-03-01T06:13:33;6.20;;;2.50;;
65737;SDS011;52478;51.844;6.582;2023-03-01T06:16:00;5.63;;;2.50;;
65737;SDS011;52478;51.844;6.582;2023-03-01T06:18:26;5.63;;;2.90;;
65737;SDS011;52478;51.844;6.582;2023-03-01T06:20:53;6.20;;;2.92;;
65737;SDS011;52478;51.844;6.582;2023-03-01T06:23:21;6.15;;;2.65;;
65737;SDS011;52478;51.844;6.582;2023-03-01T06:25:48;6.47;;;2.88;;
65737;SDS011;52478;51.844;6.582;2023-03-01T06:28:15;8.45;;;2.72;;
65737;SDS011;52478;51.844;6.582;2023-03-01T06:30:41;9.30;;;2.95;;
65737;SDS011;52478;51.844;6.582;2023-03-01T06:33:08;13.15;;;3.83;;
65737;SDS011;52478;51.844;6.582;2023-03-01T06:35:34;11.52;;;3.22;;
65737;SDS011;52478;51.844;6.582;2023-03-01T06:38:02;9.75;;;3.20;;
65737;SDS011;52478;51.844;6.582;2023-03-01T06:40:31;8.23;;;3.45;;
65737;SDS011;52478;51.844;6.582;2023-03-01T06:43:00;7.80;;;2.97;;
65737;SDS011;52478;51.844;6.582;2023-03-01T06:45:27;9.30;;;2.80;;
65737;SDS011;52478;51.844;6.582;2023-03-01T06:48:00;9.40;;;2.75;;
65737;SDS011;52478;51.844;6.582;2023-03-01T06:50:28;10.10;;;4.10;;
65737;SDS011;52478;51.844;6.582;2023-03-01T06:52:55;8.13;;;2.90;;
65737;SDS011;52478;51.844;6.582;2023-03-01T06:55:21;7.70;;;3.22;;
65737;SDS011;52478;51.844;6.582;2023-03-01T06:57:49;8.82;;;3.10;;
65737;SDS011;52478;51.844;6.582;2023-03-01T07:00:20;7.25;;;2.97;;
65737;SDS011;52478;51.844;6.582;2023-03-01T07:02:47;7.40;;;2.60;;
65737;SDS011;52478;51.844;6.582;2023-03-01T07:05:14;8.38;;;3.15;;
65737;SDS011;52478;51.844;6.582;2023-03-01T07:07:41;8.35;;;3.40;;
65737;SDS011;52478;51.844;6.582;2023-03-01T07:10:08;8.10;;;2.72;;
65737;SDS011;52478;51.844;6.582;2023-03-01T07:12:35;7.28;;;2.90;;
65737;SDS011;52478;51.844;6.582;2023-03-01T07:15:04;9.15;;;3.33;;
65737;SDS011;52478;51.844;6.582;2023-03-01T07:17:31;7.63;;;2.95;;
65737;SDS011;52478;51.844;6.582;2023-03-01T07:19:57;8.48;;;2.80;;
65737;SDS011;52478;51.844;6.582;2023-03-01T07:22:24;5.90;;;2.55;;
65737;SDS011;52478;51.844;6.582;2023-03-01T07:24:50;7.40;;;2.70;;
65737;SDS011;52478;51.844;6.582;2023-03-01T07:27:17;9.00;;;3.35;;
65737;SDS011;52478;51.844;6.582;2023-03-01T07:29:43;7.38;;;3.10;;
65737;SDS011;52478;51.844;6.582;2023-03-01T07:32:11;7.50;;;3.00;;
65737;SDS011;52478;51.844;6.582;2023-03-01T07:34:38;7.95;;;2.90;;
65737;SDS011;52478;51.844;6.582;2023-03-01T07:37:04;6.22;;;2.70;;
65737;SDS011;52478;51.844;6.582;2023-03-01T07:39:30;6.80;;;2.90;;
65737;SDS011;52478;51.844;6.582;2023-03-01T07:41:57;8.82;;;3.10;;
65737;SDS011;52478;51.844;6.582;2023-03-01T07:44:24;7.80;;;2.90;;
65737;SDS011;52478;51.844;6.582;2023-03-01T07:46:50;7.07;;;3.17;;
65737;SDS011;52478;51.844;6.582;2023-03-01T07:49:22;8.63;;;3.08;;
65737;SDS011;52478;51.844;6.582;2023-03-01T07:51:49;8.85;;;3.58;;
65737;SDS011;52478;51.844;6.582;2023-03-01T07:54:15;9.38;;;3.03;;
65737;SDS011;52478;51.844;6.582;2023-03-01T07:56:43;7.78;;;3.70;;
65737;SDS011;52478;51.844;6.582;2023-03-01T07:59:09;6.93;;;3.55;;
65737;SDS011;52478;51.844;6.582;2023-03-01T08:01:36;6.78;;;2.70;;
65737;SDS011;52478;51.844;6.582;2023-03-01T08:04:02;7.47;;;2.90;;
65737;SDS011;52478;51.844;6.582;2023-03-01T08:06:33;7.18;;;3.03;;
65737;SDS011;52478;51.844;6.582;2023-03-01T08:09:00;7.65;;;3.30;;
65737;SDS011;52478;51.844;6.582;2023-03-01T08:11:27;8.93;;;2.90;;
65737;SDS011;52478;51.844;6.582;2023-03-01T08:13:54;6.47;;;2.90;;
65737;SDS011;52478;51.844;6.582;2023-03-01T08:16:21;7.22;;;3.03;;
65737;SDS011;52478;51.844;6.582;2023-03-01T08:18:48;7.80;;;2.65;;
65737;SDS011;52478;51.844;6.582;2023-03-01T08:21:15;6.97;;;2.83;;
65737;SDS011;52478;51.844;6.582;2023-03-01T08:23:44;5.95;;;2.70;;
65737;SDS011;52478;51.844;6.582;2023-03-01T08:26:12;7.57;;;2.65;;
65737;SDS011;52478;51.844;6.582;2023-03-01T08:28:40;9.23;;;3.17;;
65737;SDS011;52478;51.844;6.582;2023-03-01T08:33:40;7.22;;;3.08;;
65737;SDS011;52478;51.844;6.582;2023-03-01T08:36:07;7.63;;;3.35;;
65737;SDS011;52478;51.844;6.582;2023-03-01T08:38:34;7.75;;;2.95;;
65737;SDS011;52478;51.844;6.582;2023-03-01T08:41:02;8.50;;;3.22;;
65737;SDS011;52478;51.844;6.582;2023-03-01T08:43:29;11.13;;;3.60;;
65737;SDS011;52478;51.844;6.582;2023-03-01T08:45:56;11.98;;;3.90;;
65737;SDS011;52478;51.844;6.582;2023-03-01T08:48:23;10.57;;;4.13;;
65737;SDS011;52478;51.844;6.582;2023-03-01T08:50:49;11.40;;;3.75;;
65737;SDS011;52478;51.844;6.582;2023-03-01T08:53:16;10.15;;;3.83;;
65737;SDS011;52478;51.844;6.582;2023-03-01T08:55:42;9.25;;;3.95;;
65737;SDS011;52478;51.844;6.582;2023-03-01T08:58:10;10.30;;;3.63;;
65737;SDS011;52478;51.844;6.582;2023-03-01T09:00:37;11.25;;;4.40;;
65737;SDS011;52478;51.844;6.582;2023-03-01T09:03:03;10.13;;;4.20;;
65737;SDS011;52478;51.844;6.582;2023-03-01T09:05:31;10.18;;;4.28;;
65737;SDS011;52478;51.844;6.582;2023-03-01T09:07:58;10.27;;;3.60;;
65737;SDS011;52478;51.844;6.582;2023-03-01T09:10:24;11.73;;;4.00;;
65737;SDS011;52478;51.844;6.582;2023-03-01T09:12:51;9.95;;;3.33;;
65737;SDS011;52478;51.844;6.582;2023-03-01T09:15:19;9.32;;;3.60;;
65737;SDS011;52478;51.844;6.582;2023-03-01T09:17:45;8.68;;;3.60;;
65737;SDS011;52478;51.844;6.582;2023-03-01T09:20:12;8.82;;;3.58;;
65737;SDS011;52478;51.844;6.582;2023-03-01T09:22:38;10.02;;;3.40;;
65737;SDS011;52478;51.844;6.582;2023-03-01T09:25:05;8.25;;;3.47;;
65737;SDS011;52478;51.844;6.582;2023-03-01T09:27:32;9.52;;;3.78;;
65737;SDS011;52478;51.844;6.582;2023-03-01T09:29:59;9.57;;;4.03;;
65737;SDS011;52478;51.844;6.582;2023-03-01T09:32:26;7.43;;;2.75;;
65737;SDS011;52478;51.844;6.582;2023-03-01T09:34:55;9.77;;;3.75;;
65737;SDS011;52478;51.844;6.582;2023-03-01T09:37:29;10.80;;;3.67;;
65737;SDS011;52478;51.844;6.582;2023-03-01T09:39:57;9.13;;;3.40;;
65737;SDS011;52478;51.844;6.582;2023-03-01T09:42:23;8.73;;;3.55;;
65737;SDS011;52478;51.844;6.582;2023-03-01T09:44:51;7.28;;;2.97;;
65737;SDS011;52478;51.844;6.582;2023-03-01T09:47:23;9.80;;;3.85;;
65737;SDS011;52478;51.844;6.582;2023-03-01T09:49:56;8.48;;;3.15;;
65737;SDS011;52478;51.844;6.582;2023-03-01T09:52:29;8.18;;;3.47;;
65737;SDS011;52478;51.844;6.582;2023-03-01T09:55:04;8.15;;;4.03;;
65737;SDS011;52478;51.844;6.582;2023-03-01T09:57:36;8.82;;;3.25;;
65737;SDS011;52478;51.844;6.582;2023-03-01T10:00:12;8.88;;;3.28;;
65737;SDS011;52478;51.844;6.582;2023-03-01T10:02:51;7.03;;;2.95;;
65737;SDS011;52478;51.844;6.582;2023-03-01T10:05:31;7.65;;;3.25;;
65737;SDS011;52478;51.844;6.582;2023-03-01T10:10:52;9.05;;;3.50;;
65737;SDS011;52478;51.844;6.582;2023-03-01T10:13:21;7.93;;;3.35;;
65737;SDS011;52478;51.844;6.582;2023-03-01T10:15:53;11.23;;;4.05;;
65737;SDS011;52478;51.844;6.582;2023-03-01T10:18:23;7.13;;;3.28;;
65737;SDS011;52478;51.844;6.582;2023-03-01T10:20:54;8.55;;;3.10;;
65737;SDS011;52478;51.844;6.582;2023-03-01T10:23:24;7.50;;;3.22;;
65737;SDS011;52478;51.844;6.582;2023-03-01T10:25:56;7.22;;;2.70;;
65737;SDS011;52478;51.844;6.582;2023-03-01T10:28:38;8.73;;;2.95;;
65737;SDS011;52478;51.844;6.582;2023-03-01T10:31:16;9.48;;;3.40;;
65737;SDS011;52478;51.844;6.582;2023-03-01T10:33:47;6.97;;;3.33;;
65737;SDS011;52478;51.844;6.582;2023-03-01T10:36:19;8.23;;;3.40;;
65737;SDS011;52478;51.844;6.582;2023-03-01T10:38:50;9.45;;;3.90;;
65737;SDS011;52478;51.844;6.582;2023-03-01T10:41:19;7.03;;;2.90;;
65737;SDS011;52478;51.844;6.582;2023-03-01T10:43:49;7.93;;;3.55;;
65737;SDS011;52478;51.844;6.582;2023-03-01T10:46:23;6.97;;;3.20;;
65737;SDS011;52478;51.844;6.582;2023-03-01T10:49:04;7.35;;;3.13;;
65737;SDS011;52478;51.844;6.582;2023-03-01T10:51:34;7.80;;;2.90;;
65737;SDS011;52478;51.844;6.582;2023-03-01T10:54:00;8.05;;;3.63;;
65737;SDS011;52478;51.844;6.582;2023-03-01T10:56:28;8.50;;;3.30;;
65737;SDS011;52478;51.844;6.582;2023-03-01T10:59:19;6.38;;;2.55;;
65737;SDS011;52478;51.844;6.582;2023-03-01T11:01:52;8.98;;;3.53;;
65737;SDS011;52478;51.844;6.582;2023-03-01T11:04:29;10.00;;;3.00;;
65737;SDS011;52478;51.844;6.582;2023-03-01T11:06:59;8.35;;;2.90;;
65737;SDS011;52478;51.844;6.582;2023-03-01T11:09:29;8.13;;;3.20;;
65737;SDS011;52478;51.844;6.582;2023-03-01T11:12:02;8.27;;;3.47;;
65737;SDS011;52478;51.844;6.582;2023-03-01T11:14:32;8.55;;;3.25;;
65737;SDS011;52478;51.844;6.582;2023-03-01T11:17:03;9.45;;;2.92;;
65737;SDS011;52478;51.844;6.582;2023-03-01T11:19:31;8.25;;;3.03;;
65737;SDS011;52478;51.844;6.582;2023-03-01T11:22:01;6.43;;;2.83;;
65737;SDS011;52478;51.844;6.582;2023-03-01T11:24:31;7.63;;;2.72;;
65737;SDS011;52478;51.844;6.582;2023-03-01T11:27:03;7.70;;;3.17;;
65737;SDS011;52478;51.844;6.582;2023-03-01T11:29:34;8.98;;;3.35;;
65737;SDS011;52478;51.844;6.582;2023-03-01T11:32:04;7.68;;;3.40;;
65737;SDS011;52478;51.844;6.582;2023-03-01T11:34:36;7.30;;;3.20;;
65737;SDS011;52478;51.844;6.582;2023-03-01T11:37:11;8.20;;;2.78;;
65737;SDS011;52478;51.844;6.582;2023-03-01T11:39:51;6.78;;;2.95;;
65737;SDS011;52478;51.844;6.582;2023-03-01T11:42:24;8.10;;;3.03;;
65737;SDS011;52478;51.844;6.582;2023-03-01T11:44:59;7.80;;;3.50;;
65737;SDS011;52478;51.844;6.582;2023-03-01T11:47:31;7.88;;;3.00;;
65737;SDS011;52478;51.844;6.582;2023-03-01T11:50:10;6.40;;;2.60;;
65737;SDS011;52478;51.844;6.582;2023-03-01T11:52:48;7.05;;;2.85;;
65737;SDS011;52478;51.844;6.582;2023-03-01T11:55:30;8.60;;;2.70;;
65737;SDS011;52478;51.844;6.582;2023-03-01T11:58:08;7.28;;;3.10;;
65737;SDS011;52478;51.844;6.582;2023-03-01T12:00:54;6.82;;;3.15;;
65737;SDS011;52478;51.844;6.582;2023-03-01T12:03:42;6.80;;;2.42;;
65737;SDS011;52478;51.844;6.582;2023-03-01T12:06:28;7.25;;;2.83;;
65737;SDS011;52478;51.844;6.582;2023-03-01T12:12:06;7.65;;;3.00;;
65737;SDS011;52478;51.844;6.582;2023-03-01T12:14:55;8.43;;;3.10;;
65737;SDS011;52478;51.844;6.582;2023-03-01T12:20:51;7.32;;;2.67;;
65737;SDS011;52478;51.844;6.582;2023-03-01T12:23:29;8.48;;;3.17;;
65737;SDS011;52478;51.844;6.582;2023-03-01T12:26:16;6.50;;;2.92;;
65737;SDS011;52478;51.844;6.582;2023-03-01T12:29:02;6.80;;;2.55;;
65737;SDS011;52478;51.844;6.582;2023-03-01T12:31:46;6.97;;;2.83;;
65737;SDS011;52478;51.844;6.582;2023-03-01T12:34:33;7.57;;;2.65;;
65737;SDS011;52478;51.844;6.582;2023-03-01T12:37:17;7.05;;;2.45;;
65737;SDS011;52478;51.844;6.582;2023-03-01T12:39:55;7.03;;;2.45;;
65737;SDS011;52478;51.844;6.582;2023-03-01T12:42:40;6.88;;;2.70;;
65737;SDS011;52478;51.844;6.582;2023-03-01T12:45:24;7.35;;;3.05;;
65737;SDS011;52478;51.844;6.582;2023-03-01T12:48:02;6.30;;;2.58;;
65737;SDS011;52478;51.844;6.582;2023-03-01T12:50:40;6.45;;;2.42;;
65737;SDS011;52478;51.844;6.582;2023-03-01T12:53:14;7.25;;;2.65;;
65737;SDS011;52478;51.844;6.582;2023-03-01T12:55:47;6.80;;;2.67;;
65737;SDS011;52478;51.844;6.582;2023-03-01T12:58:20;6.35;;;2.40;;
65737;SDS011;52478;51.844;6.582;2023-03-01T13:00:53;6.78;;;2.90;;
65737;SDS011;52478;51.844;6.582;2023-03-01T13:03:46;7.70;;;3.10;;
65737;SDS011;52478;51.844;6.582;2023-03-01T13:06:23;5.82;;;2.15;;
65737;SDS011;52478;51.844;6.582;2023-03-01T13:08:56;6.90;;;2.75;;
65737;SDS011;52478;51.844;6.582;2023-03-01T13:11:30;7.75;;;3.00;;
65737;SDS011;52478;51.844;6.582;2023-03-01T13:17:03;8.05;;;2.63;;
65737;SDS011;52478;51.844;6.582;2023-03-01T13:19:30;9.57;;;2.60;;
65737;SDS011;52478;51.844;6.582;2023-03-01T13:21:57;6.38;;;2.75;;
65737;SDS011;52478;51.844;6.582;2023-03-01T13:27:18;7.95;;;2.70;;
65737;SDS011;52478;51.844;6.582;2023-03-01T13:29:50;6.85;;;2.58;;
65737;SDS011;52478;51.844;6.582;2023-03-01T13:32:23;6.75;;;2.60;;
65737;SDS011;52478;51.844;6.582;2023-03-01T13:34:54;6.28;;;2.85;;
65737;SDS011;52478;51.844;6.582;2023-03-01T13:37:25;7.40;;;2.20;;
65737;SDS011;52478;51.844;6.582;2023-03-01T13:45:19;6.15;;;2.58;;
65737;SDS011;52478;51.844;6.582;2023-03-01T13:47:51;6.93;;;2.88;;
65737;SDS011;52478;51.844;6.582;2023-03-01T13:50:23;6.68;;;2.80;;
65737;SDS011;52478;51.844;6.582;2023-03-01T13:52:55;6.90;;;2.60;;
65737;SDS011;52478;51.844;6.582;2023-03-01T13:55:25;6.90;;;2.25;;
65737;SDS011;52478;51.844;6.582;2023-03-01T13:57:59;7.72;;;2.70;;
65737;SDS011;52478;51.844;6.582;2023-03-01T14:00:28;7.05;;;2.85;;
65737;SDS011;52478;51.844;6.582;2023-03-01T14:03:13;6.40;;;2.80;;
65737;SDS011;52478;51.844;6.582;2023-03-01T14:05:41;5.70;;;2.17;;
65737;SDS011;52478;51.844;6.582;2023-03-01T14:08:20;6.32;;;2.08;;
65737;SDS011;52478;51.844;6.582;2023-03-01T14:10:58;6.78;;;2.50;;
65737;SDS011;52478;51.844;6.582;2023-03-01T14:13:41;6.78;;;2.63;;
65737;SDS011;52478;51.844;6.582;2023-03-01T14:16:20;7.00;;;2.47;;
65737;SDS011;52478;51.844;6.582;2023-03-01T14:19:01;6.15;;;2.70;;
65737;SDS011;52478;51.844;6.582;2023-03-01T14:21:38;6.53;;;2.30;;
65737;SDS011;52478;51.844;6.582;2023-03-01T14:24:05;5.82;;;2.40;;
65737;SDS011;52478;51.844;6.582;2023-03-01T14:26:32;6.05;;;2.35;;
65737;SDS011;52478;51.844;6.582;2023-03-01T14:29:01;6.07;;;2.40;;
65737;SDS011;52478;51.844;6.582;2023-03-01T14:31:32;5.50;;;2.13;;
65737;SDS011;52478;51.844;6.582;2023-03-01T14:34:03;6.03;;;2.30;;
65737;SDS011;52478;51.844;6.582;2023-03-01T14:36:32;6.45;;;2.63;;
65737;SDS011;52478;51.844;6.582;2023-03-01T14:39:00;6.28;;;2.40;;
65737;SDS011;52478;51.844;6.582;2023-03-01T14:41:31;5.82;;;2.20;;
65737;SDS011;52478;51.844;6.582;2023-03-01T14:44:01;5.43;;;2.17;;
65737;SDS011;52478;51.844;6.582;2023-03-01T14:46:30;5.63;;;2.25;;
65737;SDS011;52478;51.844;6.582;2023-03-01T14:49:01;5.35;;;2.20;;
65737;SDS011;52478;51.844;6.582;2023-03-01T14:51:30;6.40;;;2.30;;
65737;SDS011;52478;51.844;6.582;2023-03-01T14:54:00;6.68;;;2.78;;
65737;SDS011;52478;51.844;6.582;2023-03-01T14:56:27;6.30;;;2.60;;
65737;SDS011;52478;51.844;6.582;2023-03-01T14:59:10;6.60;;;2.20;;
65737;SDS011;52478;51.844;6.582;2023-03-01T15:01:37;7.18;;;2.60;;
65737;SDS011;52478;51.844;6.582;2023-03-01T15:04:04;6.95;;;2.60;;
65737;SDS011;52478;51.844;6.582;2023-03-01T15:06:33;6.20;;;2.70;;
65737;SDS011;52478;51.844;6.582;2023-03-01T15:08:59;7.57;;;2.50;;
65737;SDS011;52478;51.844;6.582;2023-03-01T15:11:27;6.45;;;2.47;;
65737;SDS011;52478;51.844;6.582;2023-03-01T15:13:55;5.95;;;2.42;;
65737;SDS011;52478;51.844;6.582;2023-03-01T15:16:22;5.43;;;2.10;;
65737;SDS011;52478;51.844;6.582;2023-03-01T15:18:51;6.65;;;2.38;;
65737;SDS011;52478;51.844;6.582;2023-03-01T15:21:21;6.10;;;2.30;;
65737;SDS011;52478;51.844;6.582;2023-03-01T15:23:52;6.68;;;2.30;;
65737;SDS011;52478;51.844;6.582;2023-03-01T15:26:24;6.13;;;2.15;;
65737;SDS011;52478;51.844;6.582;2023-03-01T15:28:54;6.53;;;2.50;;
65737;SDS011;52478;51.844;6.582;2023-03-01T15:31:24;5.75;;;2.53;;
65737;SDS011;52478;51.844;6.582;2023-03-01T15:33:51;6.47;;;2.10;;
65737;SDS011;52478;51.844;6.582;2023-03-01T15:36:35;6.68;;;2.28;;